createdAt,value
2018-03-18T00:00:26.267Z,94088.41
2018-03-18T00:02:55.555Z,94088.46
2018-03-18T00:05:25.215Z,94086.17
2018-03-18T00:07:55.086Z,94090.75
2018-03-18T00:10:24.544Z,94090.31
2018-03-18T00:12:54.393Z,94092.58
2018-03-18T00:15:24.327Z,94095.02
2018-03-18T00:17:53.821Z,94100.27
2018-03-18T00:20:23.285Z,94104.11
2018-03-18T00:22:53.344Z,94103.09
2018-03-18T00:25:22.805Z,94095.86
2018-03-18T00:27:52.655Z,94104.62
2018-03-18T00:30:22.116Z,94097.09
2018-03-18T00:32:52.166Z,94101.16
2018-03-18T00:35:21.627Z,94101.50
2018-03-18T00:37:51.079Z,94101.80
2018-03-18T00:40:20.548Z,94098.73
2018-03-18T00:42:50.197Z,94097.40
2018-03-18T00:45:19.673Z,94091.45
2018-03-18T00:47:49.521Z,94084.42
2018-03-18T00:50:18.985Z,94098.30
2018-03-18T00:52:48.827Z,94097.29
2018-03-18T00:55:18.294Z,94095.23
2018-03-18T00:57:48.149Z,94098.07
2018-03-18T01:00:17.615Z,94108.53
2018-03-18T01:02:47.086Z,94097.27
2018-03-18T01:05:16.574Z,94101.66
2018-03-18T01:07:46.045Z,94109.02
2018-03-18T01:10:15.901Z,94113.41
2018-03-18T01:12:45.035Z,94108.20
2018-03-18T01:15:14.687Z,94108.77
2018-03-18T01:17:44.138Z,94100.55
2018-03-18T01:20:13.617Z,94100.03
2018-03-18T01:22:43.264Z,94110.11
2018-03-18T01:25:13.124Z,94108.20
2018-03-18T01:27:42.566Z,94113.58
2018-03-18T01:30:12.025Z,94109.57
2018-03-18T01:32:41.483Z,94109.89
2018-03-18T01:35:10.937Z,94097.77
2018-03-18T01:37:40.055Z,94099.24
2018-03-18T01:40:09.537Z,94102.39
2018-03-18T01:42:38.988Z,94096.42
2018-03-18T01:45:08.447Z,94087.23
2018-03-18T01:47:37.911Z,94092.36
2018-03-18T01:50:07.379Z,94092.69
2018-03-18T01:52:36.835Z,94086.94
2018-03-18T01:55:06.675Z,94085.94
2018-03-18T01:57:36.123Z,94081.27
2018-03-18T02:00:04.924Z,94088.55
2018-03-18T02:02:34.780Z,94085.55
2018-03-18T02:05:04.233Z,94078.47
2018-03-18T02:07:33.705Z,94077.23
2018-03-18T02:10:03.161Z,94075.73
2018-03-18T02:12:33.015Z,94071.73
2018-03-18T02:15:02.468Z,94066.94
2018-03-18T02:17:32.320Z,94066.88
2018-03-18T02:20:01.774Z,94070.87
2018-03-18T02:22:31.057Z,94056.25
2018-03-18T02:25:00.712Z,94057.21
2018-03-18T02:27:30.561Z,94057.59
2018-03-18T02:30:00.012Z,94061.73
2018-03-18T02:32:29.674Z,94060.03
2018-03-18T02:34:59.135Z,94061.97
2018-03-18T02:37:29.017Z,94053.56
2018-03-18T02:39:58.462Z,94064.83
2018-03-18T02:42:27.921Z,94062.30
2018-03-18T02:44:57.406Z,94057.34
2018-03-18T02:47:26.865Z,94051.08
2018-03-18T02:49:56.712Z,94049.56
2018-03-18T02:52:26.207Z,94051.80
2018-03-18T02:54:55.858Z,94052.72
2018-03-18T02:57:25.320Z,94052.56
2018-03-18T02:59:54.786Z,94054.91
2018-03-18T03:02:24.233Z,94060.43
2018-03-18T03:04:53.357Z,94059.31
2018-03-18T03:07:22.851Z,94055.87
2018-03-18T03:09:52.486Z,94055.93
2018-03-18T03:12:21.940Z,94060.80
2018-03-18T03:14:51.401Z,94055.55
2018-03-18T03:17:20.842Z,94065.30
2018-03-18T03:19:50.310Z,94061.54
2018-03-18T03:22:19.766Z,94062.86
2018-03-18T03:24:49.222Z,94059.23
2018-03-18T03:27:18.678Z,94059.62
2018-03-18T03:29:48.148Z,94060.52
2018-03-18T03:32:17.995Z,94066.51
2018-03-18T03:34:47.447Z,94063.30
2018-03-18T03:37:16.904Z,94070.40
2018-03-18T03:39:46.347Z,94070.13
2018-03-18T03:42:15.814Z,94073.90
2018-03-18T03:44:45.296Z,94078.59
2018-03-18T03:47:15.140Z,94074.34
2018-03-18T03:49:44.602Z,94072.56
2018-03-18T03:52:14.469Z,94069.80
2018-03-18T03:54:43.922Z,94075.52
2018-03-18T03:57:13.764Z,94072.78
2018-03-18T03:59:43.221Z,94070.50
2018-03-18T04:02:12.680Z,94075.45
2018-03-18T04:04:42.140Z,94078.34
2018-03-18T04:07:11.587Z,94076.00
2018-03-18T04:09:41.043Z,94076.39
2018-03-18T04:12:10.698Z,94077.31
2018-03-18T04:14:40.175Z,94074.50
2018-03-18T04:17:10.022Z,94076.19
2018-03-18T04:19:39.142Z,94073.50
2018-03-18T04:22:08.602Z,94081.13
2018-03-18T04:24:38.064Z,94081.67
2018-03-18T04:27:07.522Z,94088.65
2018-03-18T04:29:36.990Z,94079.40
2018-03-18T04:32:06.458Z,94084.56
2018-03-18T04:34:36.210Z,94073.72
2018-03-18T04:37:06.257Z,94080.34
2018-03-18T04:39:35.518Z,94083.33
2018-03-18T04:42:04.990Z,94079.68
2018-03-18T04:44:34.444Z,94077.03
2018-03-18T04:47:04.054Z,94080.88
2018-03-18T04:49:33.907Z,94080.34
2018-03-18T04:52:03.470Z,94083.39
2018-03-18T04:54:33.052Z,94078.59
2018-03-18T04:57:02.538Z,94083.02
2018-03-18T04:59:31.987Z,94086.44
2018-03-18T05:02:01.847Z,94089.75
2018-03-18T05:04:31.293Z,94083.23
2018-03-18T05:07:00.754Z,94092.36
2018-03-18T05:09:30.215Z,94095.42
2018-03-18T05:12:00.073Z,94102.47
2018-03-18T05:14:29.522Z,94095.23
2018-03-18T05:16:58.970Z,94105.25
2018-03-18T05:19:28.419Z,94090.14
2018-03-18T05:21:57.880Z,94102.16
2018-03-18T05:24:27.330Z,94100.59
2018-03-18T05:26:56.794Z,94101.98
2018-03-18T05:29:26.251Z,94102.33
2018-03-18T05:31:55.920Z,94104.38
2018-03-18T05:34:25.376Z,94109.72
2018-03-18T05:36:55.444Z,94115.62
2018-03-18T05:39:24.726Z,94119.83
2018-03-18T05:41:54.186Z,94118.29
2018-03-18T05:44:23.639Z,94120.06
2018-03-18T05:46:53.080Z,94124.63
2018-03-18T05:49:22.551Z,94132.11
2018-03-18T05:51:52.000Z,94137.75
2018-03-18T05:54:21.264Z,94134.30
2018-03-18T05:56:50.550Z,94135.37
2018-03-18T05:59:20.002Z,94135.94
2018-03-18T06:01:49.454Z,94153.28
2018-03-18T06:04:18.912Z,94153.69
2018-03-18T06:06:48.376Z,94147.61
2018-03-18T06:09:17.832Z,94157.05
2018-03-18T06:11:47.692Z,94156.88
2018-03-18T06:14:17.144Z,94158.66
2018-03-18T06:16:47.008Z,94151.41
2018-03-18T06:19:16.670Z,94149.98
2018-03-18T06:21:46.516Z,94159.91
2018-03-18T06:24:15.964Z,94160.19
2018-03-18T06:26:45.411Z,94164.73
2018-03-18T06:29:14.865Z,94168.37
2018-03-18T06:31:44.343Z,94170.97
2018-03-18T06:34:13.992Z,94165.68
2018-03-18T06:36:43.438Z,94180.53
2018-03-18T06:39:12.954Z,94171.43
2018-03-18T06:41:42.398Z,94175.14
2018-03-18T06:44:11.854Z,94181.73
2018-03-18T06:46:41.329Z,94177.33
2018-03-18T06:49:11.176Z,94174.99
2018-03-18T06:51:40.618Z,94180.25
2018-03-18T06:54:09.766Z,94189.09
2018-03-18T06:56:39.218Z,94184.16
2018-03-18T06:59:08.673Z,94191.52
2018-03-18T07:01:38.530Z,94185.27
2018-03-18T07:04:08.184Z,94190.67
2018-03-18T07:06:38.060Z,94197.98
2018-03-18T07:09:07.499Z,94195.49
2018-03-18T07:11:37.352Z,94199.41
2018-03-18T07:14:06.810Z,94211.59
2018-03-18T07:16:36.264Z,94214.03
2018-03-18T07:19:05.710Z,94220.95
2018-03-18T07:21:35.172Z,94211.11
2018-03-18T07:24:04.620Z,94212.70
2018-03-18T07:26:34.081Z,94229.42
2018-03-18T07:29:03.532Z,94226.50
2018-03-18T07:31:32.998Z,94225.91
2018-03-18T07:34:02.454Z,94226.91
2018-03-18T07:36:32.337Z,94233.59
2018-03-18T07:39:01.962Z,94235.41
2018-03-18T07:41:31.417Z,94232.39
2018-03-18T07:44:00.916Z,94233.05
2018-03-18T07:46:30.350Z,94233.19
2018-03-18T07:48:59.814Z,94233.81
2018-03-18T07:51:29.284Z,94237.81
2018-03-18T07:53:58.945Z,94240.19
2018-03-18T07:56:28.417Z,94241.78
2018-03-18T07:58:58.262Z,94248.59
2018-03-18T08:01:27.715Z,94256.99
2018-03-18T08:03:57.180Z,94253.48
2018-03-18T08:06:26.638Z,94249.23
2018-03-18T08:08:56.522Z,94251.33
2018-03-18T08:11:26.168Z,94254.70
2018-03-18T08:13:56.020Z,94254.51
2018-03-18T08:16:25.476Z,94265.59
2018-03-18T08:18:55.364Z,94264.70
2018-03-18T08:21:24.982Z,94266.20
2018-03-18T08:23:54.433Z,94274.55
2018-03-18T08:26:24.086Z,94273.69
2018-03-18T08:28:53.542Z,94282.03
2018-03-18T08:31:22.982Z,94280.06
2018-03-18T08:33:52.462Z,94269.91
2018-03-18T08:36:21.908Z,94283.05
2018-03-18T08:38:51.359Z,94281.39
2018-03-18T08:41:20.864Z,94286.67
2018-03-18T08:43:50.317Z,94285.06
2018-03-18T08:46:19.773Z,94283.34
2018-03-18T08:48:49.838Z,94277.45
2018-03-18T08:51:19.300Z,94279.34
2018-03-18T08:53:48.754Z,94273.69
2018-03-18T08:56:18.205Z,94290.04
2018-03-18T08:58:47.475Z,94285.09
2018-03-18T09:01:17.165Z,94286.23
2018-03-18T09:03:46.799Z,94297.38
2018-03-18T09:06:16.655Z,94307.70
2018-03-18T09:08:46.107Z,94295.82
2018-03-18T09:11:15.573Z,94292.30
2018-03-18T09:13:45.029Z,94298.17
2018-03-18T09:16:14.889Z,94291.22
2018-03-18T09:18:44.361Z,94297.25
2018-03-18T09:21:14.203Z,94288.92
2018-03-18T09:23:43.679Z,94292.66
2018-03-18T09:26:13.721Z,94293.31
2018-03-18T09:28:43.231Z,94292.93
2018-03-18T09:31:12.677Z,94291.69
2018-03-18T09:33:42.135Z,94298.67
2018-03-18T09:36:11.911Z,94303.31
2018-03-18T09:38:41.761Z,94309.98
2018-03-18T09:41:11.223Z,94308.91
2018-03-18T09:43:41.089Z,94316.14
2018-03-18T09:46:10.580Z,94305.88
2018-03-18T09:48:40.035Z,94316.20
2018-03-18T09:51:09.491Z,94331.63
2018-03-18T09:53:38.958Z,94317.06
2018-03-18T09:56:08.807Z,94317.71
2018-03-18T09:58:38.249Z,94324.06
2018-03-18T10:01:09.588Z,94323.36
2018-03-18T10:03:39.043Z,94329.34
2018-03-18T10:06:08.883Z,94314.72
2018-03-18T10:08:38.347Z,94318.39
2018-03-18T10:11:08.202Z,94335.48
2018-03-18T10:13:37.657Z,94324.23
2018-03-18T10:16:07.125Z,94331.31
2018-03-18T10:18:36.585Z,94328.27
2018-03-18T10:21:06.439Z,94342.31
2018-03-18T10:23:35.901Z,94328.70
2018-03-18T10:26:05.231Z,94319.70
2018-03-18T10:28:34.683Z,94326.80
2018-03-18T10:31:03.627Z,94325.73
2018-03-18T10:33:33.095Z,94326.00
2018-03-18T10:36:02.951Z,94325.61
2018-03-18T10:38:32.399Z,94324.23
2018-03-18T10:41:01.857Z,94330.63
2018-03-18T10:43:31.399Z,94320.11
2018-03-18T10:46:00.677Z,94321.84
2018-03-18T10:48:30.135Z,94330.42
2018-03-18T10:51:00.001Z,94321.19
2018-03-18T10:53:29.494Z,94336.09
2018-03-18T10:55:59.153Z,94335.48
2018-03-18T10:58:28.408Z,94333.15
2018-03-18T11:01:03.172Z,94340.59
2018-03-18T11:03:32.642Z,94340.95
2018-03-18T11:06:02.102Z,94340.59
2018-03-18T11:08:31.949Z,94337.70
2018-03-18T11:11:01.417Z,94343.48
2018-03-18T11:13:31.265Z,94346.84
2018-03-18T11:16:00.722Z,94348.96
2018-03-18T11:18:30.184Z,94348.38
2018-03-18T11:20:59.652Z,94347.70
2018-03-18T11:23:28.939Z,94349.05
2018-03-18T11:25:59.099Z,94347.50
2018-03-18T11:28:28.547Z,94359.98
2018-03-18T11:30:57.993Z,94345.42
2018-03-18T11:33:27.436Z,94350.61
2018-03-18T11:35:56.917Z,94350.94
2018-03-18T11:38:26.365Z,94359.28
2018-03-18T11:40:55.825Z,94357.47
2018-03-18T11:43:25.297Z,94358.25
2018-03-18T11:45:54.833Z,94358.05
2018-03-18T11:48:24.284Z,94359.70
2018-03-18T11:50:53.739Z,94357.83
2018-03-18T11:53:23.194Z,94357.12
2018-03-18T11:55:52.669Z,94363.70
2018-03-18T11:58:22.319Z,94361.32
2018-03-18T12:00:51.976Z,94361.71
2018-03-18T12:03:21.427Z,94372.03
2018-03-18T12:05:50.879Z,94357.11
2018-03-18T12:08:37.159Z,94358.97
2018-03-18T12:11:06.607Z,94351.08
2018-03-18T12:13:36.069Z,94355.66
2018-03-18T12:16:05.191Z,94359.05
2018-03-18T12:18:34.666Z,94365.21
2018-03-18T12:21:04.115Z,94368.69
2018-03-18T12:23:33.571Z,94356.27
2018-03-18T12:26:03.425Z,94357.72
2018-03-18T12:28:32.878Z,94365.27
2018-03-18T12:31:02.405Z,94357.68
2018-03-18T12:33:31.530Z,94355.05
2018-03-18T12:36:00.979Z,94360.27
2018-03-18T12:38:30.446Z,94351.20
2018-03-18T12:40:59.902Z,94335.31
2018-03-18T12:43:30.187Z,94355.56
2018-03-18T12:45:59.307Z,94355.67
2018-03-18T12:48:28.758Z,94354.67
2018-03-18T12:50:58.198Z,94350.89
2018-03-18T12:53:27.363Z,94353.69
2018-03-18T12:55:56.813Z,94358.42
2018-03-18T12:58:26.267Z,94354.63
2018-03-18T13:00:55.705Z,94357.58
2018-03-18T13:03:25.152Z,94354.30
2018-03-18T13:05:55.038Z,94366.97
2018-03-18T13:08:24.646Z,94366.19
2018-03-18T13:10:54.268Z,94365.30
2018-03-18T13:13:23.681Z,94366.69
2018-03-18T13:15:53.536Z,94369.08
2018-03-18T13:18:22.987Z,94369.88
2018-03-18T13:20:52.827Z,94375.19
2018-03-18T13:23:29.539Z,94373.95
2018-03-18T13:26:07.264Z,94377.13
2018-03-18T13:28:37.027Z,94373.20
2018-03-18T13:31:06.488Z,94374.33
2018-03-18T13:33:36.340Z,94381.09
2018-03-18T13:36:05.139Z,94380.37
2018-03-18T13:38:34.596Z,94387.80
2018-03-18T13:41:04.449Z,94384.33
2018-03-18T13:43:33.895Z,94383.38
2018-03-18T13:46:03.343Z,94391.77
2018-03-18T13:48:32.793Z,94384.34
2018-03-18T13:51:02.246Z,94382.77
2018-03-18T13:53:31.687Z,94394.45
2018-03-18T13:56:01.144Z,94391.54
2018-03-18T13:58:30.982Z,94396.63
2018-03-18T14:01:00.420Z,94400.36
2018-03-18T14:03:29.864Z,94400.73
2018-03-18T14:05:59.727Z,94407.17
2018-03-18T14:08:29.181Z,94405.67
2018-03-18T14:10:59.095Z,94404.00
2018-03-18T14:13:28.950Z,94404.53
2018-03-18T14:15:58.409Z,94408.22
2018-03-18T14:18:28.286Z,94416.84
2018-03-18T14:20:57.748Z,94412.25
2018-03-18T14:23:27.198Z,94411.31
2018-03-18T14:25:56.678Z,94419.73
2018-03-18T14:28:26.151Z,94413.66
2018-03-18T14:30:56.005Z,94414.20
2018-03-18T14:33:25.472Z,94416.04
2018-03-18T14:35:55.324Z,94417.10
2018-03-18T14:38:24.784Z,94412.92
2018-03-18T14:40:54.648Z,94417.13
2018-03-18T14:43:23.914Z,94414.72
2018-03-18T14:45:53.372Z,94422.88
2018-03-18T14:48:22.644Z,94419.00
2018-03-18T14:50:52.094Z,94418.03
2018-03-18T14:53:21.548Z,94417.28
2018-03-18T14:55:50.998Z,94420.70
2018-03-18T14:58:20.493Z,94426.55
2018-03-18T15:00:50.152Z,94421.14
2018-03-18T15:03:19.633Z,94415.56
2018-03-18T15:05:49.514Z,94425.89
2018-03-18T15:08:18.983Z,94428.41
2018-03-18T15:10:48.452Z,94423.81
2018-03-18T15:13:18.317Z,94424.89
2018-03-18T15:15:47.790Z,94442.31
2018-03-18T15:18:17.290Z,94432.42
2018-03-18T15:20:46.906Z,94427.06
2018-03-18T15:23:16.378Z,94431.84
2018-03-18T15:25:45.818Z,94445.03
2018-03-18T15:28:15.278Z,94445.92
2018-03-18T15:30:44.758Z,94440.56
2018-03-18T15:33:14.206Z,94439.22
2018-03-18T15:35:44.061Z,94453.50
2018-03-18T15:38:13.500Z,94460.59
2018-03-18T15:40:43.152Z,94458.47
2018-03-18T15:43:12.608Z,94464.83
2018-03-18T15:45:42.040Z,94457.46
2018-03-18T15:48:11.902Z,94464.83
2018-03-18T15:50:41.358Z,94468.84
2018-03-18T15:53:11.214Z,94482.24
2018-03-18T15:55:40.709Z,94481.61
2018-03-18T15:58:10.325Z,94471.67
2018-03-18T16:00:39.760Z,94481.69
2018-03-18T16:03:09.211Z,94481.20
2018-03-18T16:05:38.690Z,94480.66
2018-03-18T16:08:08.144Z,94487.94
2018-03-18T16:10:37.786Z,94486.03
2018-03-18T16:13:07.250Z,94496.61
2018-03-18T16:15:36.708Z,94486.91
2018-03-18T16:18:06.148Z,94490.36
2018-03-18T16:20:35.629Z,94505.51
2018-03-18T16:23:05.080Z,94501.95
2018-03-18T16:25:34.536Z,94495.73
2018-03-18T16:28:04.195Z,94507.61
2018-03-18T16:30:50.144Z,94508.25
2018-03-18T16:33:19.999Z,94516.51
2018-03-18T16:35:49.462Z,94519.67
2018-03-18T16:38:19.308Z,94525.19
2018-03-18T16:40:48.785Z,94528.62
2018-03-18T16:43:18.632Z,94530.83
2018-03-18T16:45:47.750Z,94541.63
2018-03-18T16:48:17.216Z,94537.36
2018-03-18T16:50:46.668Z,94543.98
2018-03-18T16:53:16.109Z,94550.42
2018-03-18T16:55:45.963Z,94553.35
2018-03-18T16:58:15.638Z,94551.86
2018-03-18T17:00:45.488Z,94555.30
2018-03-18T17:03:14.754Z,94558.16
2018-03-18T17:05:44.202Z,94563.31
2018-03-18T17:08:13.676Z,94571.06
2018-03-18T17:10:43.142Z,94569.69
2018-03-18T17:13:12.680Z,94568.30
2018-03-18T17:15:42.158Z,94580.24
2018-03-18T17:18:12.032Z,94574.98
2018-03-18T17:20:41.484Z,94583.56
2018-03-18T17:23:11.336Z,94585.64
2018-03-18T17:25:40.794Z,94586.38
2018-03-18T17:28:10.245Z,94603.29
2018-03-18T17:30:39.768Z,94596.95
2018-03-18T17:33:09.232Z,94605.97
2018-03-18T17:35:38.680Z,94606.84
2018-03-18T17:38:08.137Z,94614.87
2018-03-18T17:40:37.970Z,94617.08
2018-03-18T17:43:07.422Z,94611.77
2018-03-18T17:45:53.833Z,94620.13
2018-03-18T17:48:40.011Z,94631.67
2018-03-18T17:51:26.166Z,94631.06
2018-03-18T17:54:12.541Z,94632.79
2018-03-18T17:56:42.585Z,94642.49
2018-03-18T17:59:12.031Z,94638.73
2018-03-18T18:01:41.487Z,94644.09
2018-03-18T18:04:10.992Z,94648.86
2018-03-18T18:06:40.442Z,94659.67
2018-03-18T18:09:09.898Z,94658.50
2018-03-18T18:11:39.385Z,94658.70
2018-03-18T18:14:09.232Z,94659.94
2018-03-18T18:16:38.698Z,94664.06
2018-03-18T18:19:08.583Z,94658.20
2018-03-18T18:21:38.038Z,94668.52
2018-03-18T18:24:07.498Z,94666.42
2018-03-18T18:26:36.988Z,94677.20
2018-03-18T18:29:06.453Z,94669.02
2018-03-18T18:31:35.898Z,94673.25
2018-03-18T18:34:04.738Z,94679.66
2018-03-18T18:36:34.368Z,94684.33
2018-03-18T18:39:03.394Z,94683.11
2018-03-18T18:41:32.683Z,94691.77
2018-03-18T18:44:02.169Z,94692.88
2018-03-18T18:46:31.435Z,94687.00
2018-03-18T18:49:01.337Z,94690.98
2018-03-18T18:51:32.763Z,94700.12
2018-03-18T18:54:02.546Z,94701.17
2018-03-18T18:56:32.883Z,94702.35
2018-03-18T18:59:02.395Z,94700.70
2018-03-18T19:01:32.183Z,94706.27
2018-03-18T19:04:01.702Z,94716.05
2018-03-18T19:06:31.234Z,94713.81
2018-03-18T19:09:00.728Z,94714.86
2018-03-18T19:11:30.263Z,94724.87
2018-03-18T19:13:59.732Z,94718.32
2018-03-18T19:16:29.203Z,94721.80
2018-03-18T19:18:58.666Z,94722.13
2018-03-18T19:21:28.117Z,94727.02
2018-03-18T19:23:57.574Z,94727.30
2018-03-18T19:26:27.039Z,94733.80
2018-03-18T19:28:56.515Z,94736.71
2018-03-18T19:31:26.381Z,94737.59
2018-03-18T19:33:56.022Z,94744.30
2018-03-18T19:36:25.483Z,94746.84
2018-03-18T19:38:54.958Z,94746.72
2018-03-18T19:41:24.465Z,94755.19
2018-03-18T19:43:53.907Z,94757.23
2018-03-18T19:46:23.357Z,94756.84
2018-03-18T19:48:53.231Z,94753.22
2018-03-18T19:51:22.682Z,94757.44
2018-03-18T19:53:52.531Z,94764.33
2018-03-18T19:56:22.002Z,94761.63
2018-03-18T19:58:51.845Z,94767.92
2018-03-18T20:01:21.504Z,94765.61
2018-03-18T20:03:50.955Z,94772.85
2018-03-18T20:06:20.408Z,94771.43
2018-03-18T20:08:50.071Z,94766.73
2018-03-18T20:11:19.531Z,94774.10
2018-03-18T20:13:49.381Z,94775.27
2018-03-18T20:16:18.865Z,94770.52
2018-03-18T20:18:48.490Z,94775.70
2018-03-18T20:21:17.939Z,94767.81
2018-03-18T20:23:47.387Z,94780.52
2018-03-18T20:26:16.866Z,94778.21
2018-03-18T20:28:46.334Z,94772.99
2018-03-18T20:31:15.805Z,94774.98
2018-03-18T20:33:45.295Z,94783.62
2018-03-18T20:36:15.257Z,94780.36
2018-03-18T20:38:44.711Z,94779.22
2018-03-18T20:41:14.409Z,94785.36
2018-03-18T20:43:43.865Z,94792.16
2018-03-18T20:46:13.312Z,94784.05
2018-03-18T20:48:42.774Z,94785.06
2018-03-18T20:51:12.227Z,94790.30
2018-03-18T20:53:41.685Z,94794.64
2018-03-18T20:56:11.166Z,94797.05
2018-03-18T20:58:40.629Z,94791.80
2018-03-18T21:01:10.097Z,94786.81
2018-03-18T21:03:39.560Z,94791.34
2018-03-18T21:06:09.400Z,94793.69
2018-03-18T21:08:38.873Z,94792.45
2018-03-18T21:11:08.509Z,94788.70
2018-03-18T21:13:37.961Z,94801.32
2018-03-18T21:16:07.418Z,94801.06
2018-03-18T21:18:36.876Z,94796.40
2018-03-18T21:21:06.326Z,94806.44
2018-03-18T21:23:35.583Z,94802.85
2018-03-18T21:26:05.061Z,94806.73
2018-03-18T21:28:34.573Z,94801.71
2018-03-18T21:31:04.041Z,94802.33
2018-03-18T21:33:33.961Z,94802.03
2018-03-18T21:36:03.407Z,94810.28
2018-03-18T21:38:32.873Z,94805.13
2018-03-18T21:41:02.326Z,94804.48
2018-03-18T21:43:31.775Z,94806.05
2018-03-18T21:46:01.235Z,94808.72
2018-03-18T21:48:30.683Z,94804.55
2018-03-18T21:51:00.143Z,94808.33
2018-03-18T21:53:29.597Z,94809.92
2018-03-18T21:55:58.887Z,94811.00
2018-03-18T21:58:28.741Z,94808.81
2018-03-18T22:00:58.197Z,94816.73
2018-03-18T22:03:28.043Z,94821.30
2018-03-18T22:05:57.517Z,94812.17
2018-03-18T22:08:27.379Z,94818.43
2018-03-18T22:10:56.832Z,94823.16
2018-03-18T22:13:26.675Z,94828.20
2018-03-18T22:15:56.135Z,94828.88
2018-03-18T22:18:25.588Z,94820.84
2018-03-18T22:20:55.036Z,94822.72
2018-03-18T22:23:24.506Z,94819.59
2018-03-18T22:25:53.951Z,94823.70
2018-03-18T22:28:23.506Z,94827.58
2018-03-18T22:30:52.966Z,94827.97
2018-03-18T22:33:22.419Z,94825.95
2018-03-18T22:35:52.071Z,94824.99
2018-03-18T22:38:21.522Z,94825.98
2018-03-18T22:40:50.976Z,94832.10
2018-03-18T22:43:20.435Z,94829.33
2018-03-18T22:45:49.932Z,94832.19
2018-03-18T22:48:19.385Z,94828.51
2018-03-18T22:50:48.851Z,94824.31
2018-03-18T22:53:18.298Z,94827.40
2018-03-18T22:55:47.762Z,94829.80
2018-03-18T22:58:17.216Z,94824.66
2018-03-18T23:00:46.692Z,94830.63
2018-03-18T23:03:16.159Z,94830.59
2018-03-18T23:05:45.618Z,94828.92
2018-03-18T23:08:15.094Z,94820.52
2018-03-18T23:10:44.552Z,94820.45
2018-03-18T23:13:14.432Z,94823.97
2018-03-18T23:15:43.915Z,94825.61
2018-03-18T23:18:13.388Z,94829.02
2018-03-18T23:20:43.287Z,94833.80
2018-03-18T23:23:13.154Z,94834.27
2018-03-18T23:25:42.625Z,94835.95
2018-03-18T23:28:12.479Z,94830.21
2018-03-18T23:30:42.140Z,94835.98
2018-03-18T23:33:12.348Z,94836.77
2018-03-18T23:35:41.809Z,94840.50
2018-03-18T23:38:11.290Z,94838.03
2018-03-18T23:40:40.580Z,94846.14
2018-03-18T23:43:10.420Z,94850.50
2018-03-18T23:45:39.773Z,94842.72
2018-03-18T23:48:09.235Z,94845.75
2018-03-18T23:50:38.799Z,94844.22
2018-03-18T23:53:08.660Z,94849.13
2018-03-18T23:55:38.129Z,94846.43
2018-03-18T23:58:08.184Z,94845.59
